createdAt,value
2019-03-05T00:00:58.031Z,19.70
2019-03-05T00:01:58.030Z,19.61
2019-03-05T00:02:58.019Z,19.61
2019-03-05T00:03:57.988Z,19.68
2019-03-05T00:04:57.997Z,19.63
2019-03-05T00:05:58.056Z,19.65
2019-03-05T00:06:57.968Z,19.63
2019-03-05T00:07:58.009Z,19.63
2019-03-05T00:08:57.961Z,19.60
2019-03-05T00:09:57.958Z,19.66
2019-03-05T00:10:57.930Z,19.66
2019-03-05T00:11:57.959Z,19.63
2019-03-05T00:12:57.894Z,19.68
2019-03-05T00:13:57.963Z,19.58
2019-03-05T00:14:57.953Z,19.70
2019-03-05T00:15:57.877Z,19.63
2019-03-05T00:16:57.850Z,19.70
2019-03-05T00:17:57.873Z,19.63
2019-03-05T00:18:57.830Z,19.68
2019-03-05T00:19:57.829Z,19.65
2019-03-05T00:20:57.812Z,19.58
2019-03-05T00:21:57.814Z,19.70
2019-03-05T00:22:57.849Z,19.58
2019-03-05T00:23:57.815Z,19.58
2019-03-05T00:24:57.769Z,19.66
2019-03-05T00:25:57.786Z,19.61
2019-03-05T00:26:57.765Z,19.72
2019-03-05T00:27:57.728Z,19.58
2019-03-05T00:28:57.748Z,19.61
2019-03-05T00:29:57.758Z,19.65
2019-03-05T00:30:57.717Z,19.69
2019-03-05T00:31:57.691Z,19.61
2019-03-05T00:32:57.672Z,19.63
2019-03-05T00:33:57.672Z,19.61
2019-03-05T00:34:57.654Z,19.63
2019-03-05T00:35:57.677Z,19.57
2019-03-05T00:36:57.631Z,19.69
2019-03-05T00:37:57.637Z,19.58
2019-03-05T00:38:57.611Z,19.60
2019-03-05T00:39:57.592Z,19.61
2019-03-05T00:40:57.596Z,19.57
2019-03-05T00:41:57.626Z,19.65
2019-03-05T00:42:57.571Z,19.65
2019-03-05T00:43:57.561Z,19.66
2019-03-05T00:44:57.595Z,19.58
2019-03-05T00:45:57.542Z,19.61
2019-03-05T00:46:57.557Z,19.58
2019-03-05T00:47:57.556Z,19.65
2019-03-05T00:48:57.516Z,19.57
2019-03-05T00:49:57.532Z,19.61
2019-03-05T00:50:57.474Z,19.58
2019-03-05T00:51:57.493Z,19.57
2019-03-05T00:52:57.459Z,19.61
2019-03-05T00:53:57.491Z,19.61
2019-03-05T00:54:57.432Z,19.68
2019-03-05T00:55:57.447Z,19.65
2019-03-05T00:56:57.416Z,19.60
2019-03-05T00:57:57.417Z,19.63
2019-03-05T00:58:57.391Z,19.57
2019-03-05T00:59:57.416Z,19.58
2019-03-05T01:00:57.404Z,19.57
2019-03-05T01:01:57.366Z,19.63
2019-03-05T01:02:57.437Z,19.57
2019-03-05T01:03:57.360Z,19.66
2019-03-05T01:04:57.323Z,19.63
2019-03-05T01:05:57.443Z,19.63
2019-03-05T01:06:57.400Z,19.60
2019-03-05T01:07:57.378Z,19.60
2019-03-05T01:08:57.389Z,19.60
2019-03-05T01:09:57.389Z,19.60
2019-03-05T01:10:57.345Z,19.61
2019-03-05T01:11:57.297Z,19.57
2019-03-05T01:12:57.349Z,19.53
2019-03-05T01:13:57.390Z,19.58
2019-03-05T01:14:57.223Z,19.60
2019-03-05T01:15:57.297Z,19.58
2019-03-05T01:16:57.279Z,19.61
2019-03-05T01:17:57.312Z,19.57
2019-03-05T01:18:57.180Z,19.61
2019-03-05T01:19:57.275Z,19.63
2019-03-05T01:20:57.256Z,19.57
2019-03-05T01:21:57.250Z,19.54
2019-03-05T01:22:57.235Z,19.60
2019-03-05T01:23:57.283Z,19.55
2019-03-05T01:24:57.112Z,19.58
2019-03-05T01:25:57.093Z,19.65
2019-03-05T01:26:57.178Z,19.58
2019-03-05T01:27:57.161Z,19.60
2019-03-05T01:28:57.158Z,19.61
2019-03-05T01:29:57.199Z,19.61
2019-03-05T01:30:57.125Z,19.57
2019-03-05T01:31:57.133Z,19.57
2019-03-05T01:32:57.128Z,19.57
2019-03-05T01:33:57.119Z,19.60
2019-03-05T01:34:57.102Z,19.58
2019-03-05T01:35:57.143Z,19.60
2019-03-05T01:36:57.087Z,19.57
2019-03-05T01:37:57.099Z,19.60
2019-03-05T01:38:57.056Z,19.61
2019-03-05T01:39:56.934Z,19.61
2019-03-05T01:40:57.015Z,19.57
2019-03-05T01:41:57.038Z,19.57
2019-03-05T01:42:56.996Z,19.53
2019-03-05T01:43:56.990Z,19.50
2019-03-05T01:44:56.962Z,19.57
2019-03-05T01:45:56.962Z,19.58
2019-03-05T01:46:56.955Z,19.58
2019-03-05T01:47:56.980Z,19.55
2019-03-05T01:48:56.937Z,19.61
2019-03-05T01:49:56.921Z,19.57
2019-03-05T01:50:56.909Z,19.55
2019-03-05T01:51:56.939Z,19.60
2019-03-05T01:52:56.884Z,19.50
2019-03-05T01:53:56.951Z,19.51
2019-03-05T01:54:56.863Z,19.53
2019-03-05T01:55:56.854Z,19.53
2019-03-05T01:56:56.853Z,19.53
2019-03-05T01:57:56.855Z,19.53
2019-03-05T01:58:56.830Z,19.60
2019-03-05T01:59:56.844Z,19.61
2019-03-05T02:00:56.817Z,19.54
2019-03-05T02:01:56.800Z,19.58
2019-03-05T02:02:56.776Z,19.51
2019-03-05T02:03:56.766Z,19.48
2019-03-05T02:04:56.760Z,19.55
2019-03-05T02:05:56.785Z,19.50
2019-03-05T02:06:56.761Z,19.54
2019-03-05T02:07:56.724Z,19.53
2019-03-05T02:08:56.718Z,19.51
2019-03-05T02:09:56.709Z,19.53
2019-03-05T02:10:56.699Z,19.46
2019-03-05T02:11:56.736Z,19.50
2019-03-05T02:12:56.677Z,19.57
2019-03-05T02:13:56.655Z,19.42
2019-03-05T02:14:56.651Z,19.53
2019-03-05T02:15:56.653Z,19.48
2019-03-05T02:16:56.684Z,19.54
2019-03-05T02:17:56.660Z,19.40
2019-03-05T02:18:56.612Z,19.51
2019-03-05T02:19:56.639Z,19.43
2019-03-05T02:20:56.587Z,19.50
2019-03-05T02:21:56.590Z,19.54
2019-03-05T02:22:56.613Z,19.50
2019-03-05T02:23:56.612Z,19.51
2019-03-05T02:24:56.458Z,19.51
2019-03-05T02:25:57.039Z,19.46
2019-03-05T02:26:56.590Z,19.53
2019-03-05T02:27:56.535Z,19.51
2019-03-05T02:28:56.495Z,19.53
2019-03-05T02:29:56.580Z,19.50
2019-03-05T02:30:56.477Z,19.48
2019-03-05T02:31:56.475Z,19.54
2019-03-05T02:32:56.480Z,19.47
2019-03-05T02:33:56.441Z,19.40
2019-03-05T02:34:56.429Z,19.48
2019-03-05T02:35:56.458Z,19.53
2019-03-05T02:36:56.434Z,19.51
2019-03-05T02:37:56.395Z,19.43
2019-03-05T02:38:56.399Z,19.54
2019-03-05T02:39:56.381Z,19.48
2019-03-05T02:40:56.378Z,19.42
2019-03-05T02:41:56.413Z,19.42
2019-03-05T02:42:56.377Z,19.53
2019-03-05T02:43:56.341Z,19.53
2019-03-05T02:44:56.324Z,19.54
2019-03-05T02:45:56.304Z,19.53
2019-03-05T02:46:56.303Z,19.40
2019-03-05T02:47:56.315Z,19.48
2019-03-05T02:48:56.282Z,19.47
2019-03-05T02:49:56.265Z,19.46
2019-03-05T02:50:56.276Z,19.48
2019-03-05T02:51:56.281Z,19.42
2019-03-05T02:52:56.233Z,19.40
2019-03-05T02:53:56.257Z,19.53
2019-03-05T02:54:56.211Z,19.40
2019-03-05T02:55:56.221Z,19.53
2019-03-05T02:56:56.184Z,19.51
2019-03-05T02:57:56.091Z,19.47
2019-03-05T02:58:56.230Z,19.42
2019-03-05T02:59:56.189Z,19.47
2019-03-05T03:00:56.143Z,19.53
2019-03-05T03:01:56.228Z,19.47
2019-03-05T03:02:56.160Z,19.46
2019-03-05T03:03:56.110Z,19.42
2019-03-05T03:04:56.107Z,19.40
2019-03-05T03:05:56.055Z,19.51
2019-03-05T03:06:56.075Z,19.47
2019-03-05T03:07:56.066Z,19.43
2019-03-05T03:08:56.055Z,19.54
2019-03-05T03:09:55.975Z,19.39
2019-03-05T03:10:56.034Z,19.51
2019-03-05T03:11:56.088Z,19.46
2019-03-05T03:12:56.023Z,19.40
2019-03-05T03:13:56.027Z,19.47
2019-03-05T03:14:56.010Z,19.47
2019-03-05T03:15:55.970Z,19.43
2019-03-05T03:16:55.979Z,19.50
2019-03-05T03:17:56.050Z,19.46
2019-03-05T03:18:55.957Z,19.46
2019-03-05T03:19:55.951Z,19.47
2019-03-05T03:20:55.940Z,19.36
2019-03-05T03:21:55.924Z,19.40
2019-03-05T03:22:55.931Z,19.46
2019-03-05T03:23:55.948Z,19.46
2019-03-05T03:24:55.908Z,19.47
2019-03-05T03:25:55.885Z,19.46
2019-03-05T03:26:55.868Z,19.46
2019-03-05T03:27:55.849Z,19.40
2019-03-05T03:28:55.844Z,19.40
2019-03-05T03:29:55.864Z,19.46
2019-03-05T03:30:56.085Z,19.40
2019-03-05T03:31:55.939Z,19.42
2019-03-05T03:32:55.812Z,19.43
2019-03-05T03:33:55.818Z,19.38
2019-03-05T03:34:55.820Z,19.38
2019-03-05T03:35:55.812Z,19.46
2019-03-05T03:36:55.756Z,19.38
2019-03-05T03:37:55.760Z,19.39
2019-03-05T03:38:55.744Z,19.47
2019-03-05T03:39:55.717Z,19.38
2019-03-05T03:40:55.706Z,19.46
2019-03-05T03:41:55.741Z,19.39
2019-03-05T03:42:55.694Z,19.42
2019-03-05T03:43:55.682Z,19.39
2019-03-05T03:44:55.689Z,19.47
2019-03-05T03:45:55.666Z,19.39
2019-03-05T03:46:55.637Z,19.42
2019-03-05T03:47:55.683Z,19.40
2019-03-05T03:48:55.640Z,19.43
2019-03-05T03:49:55.623Z,19.36
2019-03-05T03:50:55.610Z,19.43
2019-03-05T03:51:55.602Z,19.50
2019-03-05T03:52:55.575Z,19.46
2019-03-05T03:53:55.644Z,19.39
2019-03-05T03:54:55.561Z,19.39
2019-03-05T03:55:55.574Z,19.38
2019-03-05T03:56:55.543Z,19.48
2019-03-05T03:57:55.524Z,19.40
2019-03-05T03:58:55.506Z,19.48
2019-03-05T03:59:55.556Z,19.42
2019-03-05T04:00:55.501Z,19.40
2019-03-05T04:01:55.501Z,19.42
2019-03-05T04:02:55.468Z,19.51
2019-03-05T04:03:55.379Z,19.46
2019-03-05T04:04:55.445Z,19.39
2019-03-05T04:05:55.532Z,19.38
2019-03-05T04:06:55.420Z,19.43
2019-03-05T04:07:55.427Z,19.38
2019-03-05T04:08:55.402Z,19.46
2019-03-05T04:09:55.393Z,19.42
2019-03-05T04:10:55.396Z,19.47
2019-03-05T04:11:55.404Z,19.46
2019-03-05T04:12:55.353Z,19.43
2019-03-05T04:13:55.344Z,19.35
2019-03-05T04:14:55.360Z,19.43
2019-03-05T04:15:55.346Z,19.40
2019-03-05T04:16:55.337Z,19.43
2019-03-05T04:17:55.347Z,19.39
2019-03-05T04:18:55.289Z,19.40
2019-03-05T04:19:55.337Z,19.38
2019-03-05T04:20:55.277Z,19.40
2019-03-05T04:21:55.263Z,19.43
2019-03-05T04:22:55.263Z,19.43
2019-03-05T04:23:55.305Z,19.43
2019-03-05T04:24:55.252Z,19.42
2019-03-05T04:25:55.224Z,19.40
2019-03-05T04:26:55.227Z,19.40
2019-03-05T04:27:55.210Z,19.46
2019-03-05T04:28:55.228Z,19.40
2019-03-05T04:29:55.236Z,19.47
2019-03-05T04:30:55.150Z,19.42
2019-03-05T04:31:55.160Z,19.33
2019-03-05T04:32:55.209Z,19.40
2019-03-05T04:33:55.135Z,19.38
2019-03-05T04:34:55.120Z,19.43
2019-03-05T04:35:55.159Z,19.46
2019-03-05T04:36:55.108Z,19.48
2019-03-05T04:37:55.117Z,19.43
2019-03-05T04:38:55.085Z,19.40
2019-03-05T04:39:55.070Z,19.38
2019-03-05T04:40:55.051Z,19.38
2019-03-05T04:41:55.097Z,19.42
2019-03-05T04:42:55.025Z,19.40
2019-03-05T04:43:55.054Z,19.39
2019-03-05T04:44:55.045Z,19.40
2019-03-05T04:45:55.003Z,19.43
2019-03-05T04:46:55.005Z,19.36
2019-03-05T04:47:55.005Z,19.40
2019-03-05T04:48:54.974Z,19.40
2019-03-05T04:49:54.951Z,19.39
2019-03-05T04:50:54.931Z,19.42
2019-03-05T04:51:54.928Z,19.40
2019-03-05T04:52:54.922Z,19.40
2019-03-05T04:53:54.942Z,19.48
2019-03-05T04:54:54.922Z,19.40
2019-03-05T04:55:54.879Z,19.35
2019-03-05T04:56:54.886Z,19.39
2019-03-05T04:57:54.947Z,19.39
2019-03-05T04:58:54.857Z,19.40
2019-03-05T04:59:55.093Z,19.35
2019-03-05T05:00:54.842Z,19.42
2019-03-05T05:01:54.862Z,19.46
2019-03-05T05:02:54.830Z,19.40
2019-03-05T05:03:54.799Z,19.43
2019-03-05T05:04:54.800Z,19.42
2019-03-05T05:05:54.871Z,19.42
2019-03-05T05:06:54.773Z,19.46
2019-03-05T05:07:54.765Z,19.42
2019-03-05T05:08:54.746Z,19.40
2019-03-05T05:09:54.736Z,19.35
2019-03-05T05:10:54.729Z,19.38
2019-03-05T05:11:54.788Z,19.42
2019-03-05T05:12:54.723Z,19.39
2019-03-05T05:13:54.717Z,19.36
2019-03-05T05:14:54.687Z,19.38
2019-03-05T05:15:54.695Z,19.33
2019-03-05T05:16:54.667Z,19.38
2019-03-05T05:17:54.692Z,19.43
2019-03-05T05:18:54.644Z,19.42
2019-03-05T05:19:54.647Z,19.36
2019-03-05T05:20:54.647Z,19.48
2019-03-05T05:21:54.618Z,19.36
2019-03-05T05:22:54.600Z,19.39
2019-03-05T05:23:54.687Z,19.38
2019-03-05T05:24:54.569Z,19.39
2019-03-05T05:25:54.555Z,19.38
2019-03-05T05:26:54.578Z,19.36
2019-03-05T05:27:54.560Z,19.40
2019-03-05T05:28:54.536Z,19.38
2019-03-05T05:29:54.611Z,19.35
2019-03-05T05:30:54.510Z,19.43
2019-03-05T05:31:54.524Z,19.40
2019-03-05T05:32:54.517Z,19.39
2019-03-05T05:33:54.524Z,19.42
2019-03-05T05:34:54.463Z,19.38
2019-03-05T05:35:54.517Z,19.39
2019-03-05T05:36:54.468Z,19.36
2019-03-05T05:37:54.438Z,19.43
2019-03-05T05:38:54.513Z,19.42
2019-03-05T05:39:54.419Z,19.38
2019-03-05T05:40:54.411Z,19.35
2019-03-05T05:41:54.436Z,19.39
2019-03-05T05:42:55.083Z,19.33
2019-03-05T05:43:54.407Z,19.36
2019-03-05T05:44:54.370Z,19.39
2019-03-05T05:45:54.342Z,19.38
2019-03-05T05:46:54.377Z,19.33
2019-03-05T05:47:54.384Z,19.33
2019-03-05T05:48:54.305Z,19.36
2019-03-05T05:49:54.318Z,19.36
2019-03-05T05:50:54.312Z,19.36
2019-03-05T05:51:54.305Z,19.46
2019-03-05T05:52:54.259Z,19.39
2019-03-05T05:53:54.500Z,19.39
2019-03-05T05:54:54.265Z,19.31
2019-03-05T05:55:54.254Z,19.35
2019-03-05T05:56:54.225Z,19.35
2019-03-05T05:57:54.219Z,19.33
2019-03-05T05:58:54.211Z,19.33
2019-03-05T05:59:54.144Z,19.32
2019-03-05T06:00:54.203Z,19.32
2019-03-05T06:01:54.171Z,19.35
2019-03-05T06:02:54.168Z,19.36
2019-03-05T06:03:54.069Z,19.32
2019-03-05T06:04:54.158Z,19.36
2019-03-05T06:05:54.104Z,19.38
2019-03-05T06:06:54.129Z,19.33
2019-03-05T06:07:54.112Z,19.42
2019-03-05T06:08:54.094Z,19.38
2019-03-05T06:09:54.119Z,19.40
2019-03-05T06:10:53.996Z,19.38
2019-03-05T06:11:54.120Z,19.39
2019-03-05T06:12:54.051Z,19.43
2019-03-05T06:13:54.046Z,19.38
2019-03-05T06:14:54.037Z,19.40
2019-03-05T06:15:53.950Z,19.39
2019-03-05T06:16:53.945Z,19.36
2019-03-05T06:17:53.974Z,19.40
2019-03-05T06:18:53.882Z,19.46
2019-03-05T06:19:53.999Z,19.42
2019-03-05T06:20:54.144Z,19.40
2019-03-05T06:21:53.860Z,19.36
2019-03-05T06:22:53.875Z,19.39
2019-03-05T06:23:53.915Z,19.36
2019-03-05T06:24:53.948Z,19.42
2019-03-05T06:25:53.805Z,19.39
2019-03-05T06:26:53.818Z,19.36
2019-03-05T06:27:53.897Z,19.39
2019-03-05T06:28:53.830Z,19.40
2019-03-05T06:29:53.896Z,19.39
2019-03-05T06:30:53.866Z,19.39
2019-03-05T06:31:53.773Z,19.42
2019-03-05T06:32:53.791Z,19.40
2019-03-05T06:33:53.728Z,19.36
2019-03-05T06:34:53.722Z,19.43
2019-03-05T06:35:53.859Z,19.40
2019-03-05T06:36:53.702Z,19.39
2019-03-05T06:37:53.817Z,19.38
2019-03-05T06:38:53.812Z,19.43
2019-03-05T06:39:53.797Z,19.35
2019-03-05T06:40:53.683Z,19.36
2019-03-05T06:41:53.678Z,19.46
2019-03-05T06:42:53.638Z,19.40
2019-03-05T06:43:53.621Z,19.39
2019-03-05T06:44:53.638Z,19.39
2019-03-05T06:45:53.720Z,19.42
2019-03-05T06:46:53.685Z,19.40
2019-03-05T06:47:53.657Z,19.40
2019-03-05T06:48:53.567Z,19.39
2019-03-05T06:49:53.581Z,19.40
2019-03-05T06:50:53.590Z,19.43
2019-03-05T06:51:53.532Z,19.39
2019-03-05T06:52:53.533Z,19.42
2019-03-05T06:53:53.544Z,19.40
2019-03-05T06:54:53.509Z,19.42
2019-03-05T06:55:53.612Z,19.40
2019-03-05T06:56:53.475Z,19.46
2019-03-05T06:57:53.485Z,19.47
2019-03-05T06:58:53.495Z,19.43
2019-03-05T06:59:53.642Z,19.40
2019-03-05T07:00:53.461Z,19.47
2019-03-05T07:01:53.523Z,19.47
2019-03-05T07:02:53.581Z,19.38
2019-03-05T07:03:53.437Z,19.42
2019-03-05T07:04:53.540Z,19.39
2019-03-05T07:05:53.555Z,19.50
2019-03-05T07:06:53.471Z,19.42
2019-03-05T07:07:53.369Z,19.39
2019-03-05T07:08:53.355Z,19.47
2019-03-05T07:09:53.463Z,19.46
2019-03-05T07:10:53.459Z,19.35
2019-03-05T07:11:53.481Z,19.43
2019-03-05T07:12:53.459Z,19.39
2019-03-05T07:13:53.351Z,19.47
2019-03-05T07:14:53.388Z,19.46
2019-03-05T07:15:53.373Z,19.46
2019-03-05T07:16:53.377Z,19.39
2019-03-05T07:17:53.416Z,19.42
2019-03-05T07:18:53.372Z,19.43
2019-03-05T07:19:57.832Z,19.40
2019-03-05T07:20:54.309Z,19.40
2019-03-05T07:21:53.289Z,19.42
2019-03-05T07:22:53.197Z,19.38
2019-03-05T07:23:53.218Z,19.46
2019-03-05T07:24:53.187Z,19.43
2019-03-05T07:25:53.181Z,19.40
2019-03-05T07:26:53.166Z,19.42
2019-03-05T07:27:53.152Z,19.46
2019-03-05T07:28:53.139Z,19.42
2019-03-05T07:29:53.520Z,19.38
2019-03-05T07:30:53.134Z,19.46
2019-03-05T07:31:53.096Z,19.39
2019-03-05T07:32:53.095Z,19.47
2019-03-05T07:33:53.061Z,19.35
2019-03-05T07:34:53.056Z,19.32
2019-03-05T07:35:53.101Z,19.36
2019-03-05T07:36:53.037Z,19.35
2019-03-05T07:37:53.031Z,19.35
2019-03-05T07:38:53.057Z,19.31
2019-03-05T07:39:53.003Z,19.35
2019-03-05T07:40:53.005Z,19.33
2019-03-05T07:41:53.024Z,19.38
2019-03-05T07:42:52.980Z,19.39
2019-03-05T07:43:52.947Z,19.36
2019-03-05T07:44:52.940Z,19.40
2019-03-05T07:45:52.922Z,19.36
2019-03-05T07:46:52.939Z,19.39
2019-03-05T07:47:52.973Z,19.39
2019-03-05T07:48:53.004Z,19.36
2019-03-05T07:49:52.898Z,19.46
2019-03-05T07:50:52.909Z,19.43
2019-03-05T07:51:52.914Z,19.43
2019-03-05T07:52:52.855Z,19.51
2019-03-05T07:53:54.205Z,19.55
2019-03-05T07:54:52.851Z,19.51
2019-03-05T07:55:52.834Z,19.57
2019-03-05T07:56:52.813Z,19.57
2019-03-05T07:57:52.910Z,19.53
2019-03-05T07:58:52.795Z,19.54
2019-03-05T07:59:52.929Z,19.51
2019-03-05T08:00:52.868Z,19.57
2019-03-05T08:01:52.767Z,19.57
2019-03-05T08:02:52.805Z,19.60
2019-03-05T08:03:52.758Z,19.60
2019-03-05T08:04:52.818Z,19.60
2019-03-05T08:05:52.781Z,19.57
2019-03-05T08:06:52.726Z,19.60
2019-03-05T08:07:52.714Z,19.63
2019-03-05T08:08:52.777Z,19.57
2019-03-05T08:09:52.689Z,19.60
2019-03-05T08:10:52.798Z,19.61
2019-03-05T08:11:52.911Z,19.61
2019-03-05T08:12:52.748Z,19.63
2019-03-05T08:13:52.639Z,19.61
2019-03-05T08:14:52.652Z,19.61
2019-03-05T08:16:02.009Z,19.57
2019-03-05T08:16:53.674Z,19.60
2019-03-05T08:17:52.595Z,19.58
2019-03-05T08:18:52.580Z,19.60
2019-03-05T08:19:52.665Z,19.63
2019-03-05T08:20:52.661Z,19.58
2019-03-05T08:21:52.649Z,19.60
2019-03-05T08:22:52.707Z,19.58
2019-03-05T08:23:52.639Z,19.55
2019-03-05T08:24:52.618Z,19.66
2019-03-05T08:25:52.690Z,19.57
2019-03-05T08:26:52.589Z,19.63
2019-03-05T08:27:52.598Z,19.69
2019-03-05T08:28:52.648Z,19.69
2019-03-05T08:29:52.595Z,19.66
2019-03-05T08:30:52.542Z,19.65
2019-03-05T08:31:52.564Z,19.61
2019-03-05T08:32:52.434Z,19.69
2019-03-05T08:33:52.527Z,19.70
2019-03-05T08:34:52.547Z,19.70
2019-03-05T08:35:52.518Z,19.72
2019-03-05T08:36:52.387Z,19.68
2019-03-05T08:37:52.534Z,19.76
2019-03-05T08:38:52.459Z,19.68
2019-03-05T08:39:52.449Z,19.75
2019-03-05T08:40:52.493Z,19.70
2019-03-05T08:41:52.349Z,19.73
2019-03-05T08:42:52.316Z,19.75
2019-03-05T08:43:54.321Z,19.76
2019-03-05T08:44:52.322Z,19.80
2019-03-05T08:45:52.415Z,19.72
2019-03-05T08:46:52.417Z,19.72
2019-03-05T08:47:52.391Z,19.73
2019-03-05T08:48:52.337Z,19.73
2019-03-05T08:49:52.348Z,19.72
2019-03-05T08:50:52.346Z,19.84
2019-03-05T08:51:52.225Z,19.83
2019-03-05T08:52:52.717Z,19.86
2019-03-05T08:53:52.481Z,19.88
2019-03-05T08:54:52.192Z,19.86
2019-03-05T08:55:52.203Z,19.91
2019-03-05T08:56:52.217Z,19.88
2019-03-05T08:57:52.164Z,19.93
2019-03-05T08:58:52.201Z,19.84
2019-03-05T08:59:52.127Z,19.83
2019-03-05T09:00:52.141Z,19.87
2019-03-05T09:01:52.117Z,19.80
2019-03-05T09:02:52.122Z,19.84
2019-03-05T09:03:52.096Z,19.84
2019-03-05T09:04:52.289Z,19.78
2019-03-05T09:05:52.085Z,19.84
2019-03-05T09:06:53.178Z,19.73
2019-03-05T09:07:52.153Z,19.84
2019-03-05T09:08:52.062Z,19.84
2019-03-05T09:09:52.019Z,19.78
2019-03-05T09:10:52.060Z,19.84
2019-03-05T09:11:51.998Z,19.73
2019-03-05T09:12:51.999Z,19.72
2019-03-05T09:13:52.014Z,19.83
2019-03-05T09:14:51.978Z,19.80
2019-03-05T09:15:51.976Z,19.86
2019-03-05T09:16:51.994Z,19.86
2019-03-05T09:17:51.958Z,19.87
2019-03-05T09:18:51.915Z,19.90
2019-03-05T09:19:51.918Z,19.84
2019-03-05T09:20:51.915Z,19.94
2019-03-05T09:21:51.918Z,19.97
2019-03-05T09:22:51.958Z,19.97
2019-03-05T09:23:51.899Z,19.98
2019-03-05T09:24:51.865Z,19.98
2019-03-05T09:25:51.863Z,20.02
2019-03-05T09:26:51.863Z,19.98
2019-03-05T09:27:51.877Z,20.03
2019-03-05T09:28:52.058Z,20.03
2019-03-05T09:29:51.847Z,20.00
2019-03-05T09:30:51.833Z,20.09
2019-03-05T09:31:51.778Z,20.08
2019-03-05T09:32:51.780Z,20.10
2019-03-05T09:33:51.761Z,20.15
2019-03-05T09:34:51.820Z,20.09
2019-03-05T09:35:51.757Z,20.12
2019-03-05T09:36:51.738Z,20.09
2019-03-05T09:37:51.719Z,20.13
2019-03-05T09:38:51.723Z,20.06
2019-03-05T09:39:51.718Z,20.12
2019-03-05T09:40:51.771Z,20.09
2019-03-05T09:41:51.746Z,20.09
2019-03-05T09:42:51.678Z,20.13
2019-03-05T09:43:51.694Z,20.09
2019-03-05T09:44:51.649Z,20.08
2019-03-05T09:45:51.643Z,20.09
2019-03-05T09:46:52.070Z,20.06
2019-03-05T09:47:51.619Z,20.03
2019-03-05T09:48:51.607Z,20.12
2019-03-05T09:49:51.604Z,20.18
2019-03-05T09:50:51.581Z,20.02
2019-03-05T09:51:51.578Z,20.00
2019-03-05T09:52:54.826Z,20.00
2019-03-05T09:53:51.538Z,19.97
2019-03-05T09:54:51.546Z,20.12
2019-03-05T09:55:51.521Z,20.09
2019-03-05T09:56:51.520Z,19.95
2019-03-05T09:57:51.496Z,20.10
2019-03-05T09:58:51.523Z,20.08
2019-03-05T09:59:51.479Z,20.10
2019-03-05T10:00:51.478Z,20.05
2019-03-05T10:01:51.458Z,20.10
2019-03-05T10:02:51.460Z,20.00
2019-03-05T10:03:51.448Z,20.06
2019-03-05T10:04:51.512Z,20.02
2019-03-05T10:05:51.442Z,20.02
2019-03-05T10:06:51.408Z,20.03
2019-03-05T10:07:51.401Z,20.00
2019-03-05T10:08:51.431Z,20.18
2019-03-05T10:09:51.409Z,20.16
2019-03-05T10:10:51.399Z,20.09
2019-03-05T10:11:56.614Z,20.15
2019-03-05T10:12:52.339Z,20.24
2019-03-05T10:13:51.377Z,20.18
2019-03-05T10:14:51.315Z,20.21
2019-03-05T10:15:53.417Z,20.24
2019-03-05T10:16:51.340Z,20.15
2019-03-05T10:17:51.310Z,20.13
2019-03-05T10:18:51.278Z,20.24
2019-03-05T10:19:51.260Z,20.27
2019-03-05T10:20:51.257Z,20.28
2019-03-05T10:21:51.239Z,20.24
2019-03-05T10:22:51.318Z,20.23
2019-03-05T10:23:51.218Z,20.30
2019-03-05T10:24:51.337Z,20.30
2019-03-05T10:25:51.200Z,20.35
2019-03-05T10:26:51.199Z,20.33
2019-03-05T10:27:51.181Z,20.42
2019-03-05T10:28:51.217Z,20.34
2019-03-05T10:29:52.383Z,20.38
2019-03-05T10:30:51.151Z,20.41
2019-03-05T10:31:51.138Z,20.38
2019-03-05T10:32:51.118Z,20.47
2019-03-05T10:33:51.119Z,20.46
2019-03-05T10:34:51.151Z,20.38
2019-03-05T10:35:51.111Z,20.54
2019-03-05T10:36:51.090Z,20.74
2019-03-05T10:37:51.078Z,20.65
2019-03-05T10:38:57.255Z,20.58
2019-03-05T10:39:52.069Z,20.69
2019-03-05T10:40:51.084Z,20.74
2019-03-05T10:41:51.021Z,20.79
2019-03-05T10:42:51.019Z,20.84
2019-03-05T10:43:51.017Z,20.79
2019-03-05T10:44:51.057Z,20.84
2019-03-05T10:45:50.975Z,20.84
2019-03-05T10:46:51.000Z,20.99
2019-03-05T10:47:50.979Z,20.95
2019-03-05T10:48:50.936Z,20.96
2019-03-05T10:49:50.942Z,20.96
2019-03-05T10:50:50.918Z,20.93
2019-03-05T10:51:50.921Z,20.98
2019-03-05T10:52:50.964Z,20.89
2019-03-05T10:53:50.898Z,21.05
2019-03-05T10:54:50.879Z,20.99
2019-03-05T10:55:50.881Z,21.05
2019-03-05T10:56:50.868Z,21.01
2019-03-05T10:57:50.860Z,21.01
2019-03-05T10:58:50.880Z,20.98
2019-03-05T10:59:50.816Z,20.99
2019-03-05T11:00:50.834Z,21.02
2019-03-05T11:01:50.798Z,21.04
2019-03-05T11:02:50.805Z,20.96
2019-03-05T11:03:50.798Z,20.99
2019-03-05T11:04:52.408Z,21.13
2019-03-05T11:05:50.784Z,21.41
2019-03-05T11:06:50.755Z,21.61
2019-03-05T11:07:50.739Z,21.71
2019-03-05T11:08:50.753Z,21.66
2019-03-05T11:09:50.794Z,21.56
2019-03-05T11:10:50.753Z,21.57
2019-03-05T11:11:50.720Z,21.39
2019-03-05T11:12:50.681Z,21.42
2019-03-05T11:13:50.669Z,21.44
2019-03-05T11:14:50.666Z,21.38
2019-03-05T11:15:50.643Z,21.83
2019-03-05T11:16:50.675Z,22.41
2019-03-05T11:17:50.615Z,22.27
2019-03-05T11:18:50.638Z,22.41
2019-03-05T11:19:50.606Z,22.69
2019-03-05T11:20:50.602Z,22.46
2019-03-05T11:21:50.585Z,22.54
2019-03-05T11:22:50.617Z,22.39
2019-03-05T11:23:50.564Z,22.23
2019-03-05T11:24:50.556Z,22.49
2019-03-05T11:25:50.581Z,22.60
2019-03-05T11:26:50.534Z,22.67
2019-03-05T11:27:50.533Z,22.99
2019-03-05T11:28:50.546Z,22.84
2019-03-05T11:29:50.502Z,22.96
2019-03-05T11:30:50.477Z,23.04
2019-03-05T11:31:50.499Z,23.31
2019-03-05T11:32:50.463Z,23.72
2019-03-05T11:33:50.448Z,23.60
2019-03-05T11:34:50.489Z,23.43
2019-03-05T11:35:50.446Z,23.45
2019-03-05T11:36:50.420Z,23.45
2019-03-05T11:37:50.400Z,23.47
2019-03-05T11:38:50.401Z,23.65
2019-03-05T11:39:50.379Z,23.76
2019-03-05T11:40:50.410Z,23.75
2019-03-05T11:41:50.420Z,23.60
2019-03-05T11:42:50.338Z,23.29
2019-03-05T11:43:50.346Z,23.08
2019-03-05T11:45:03.769Z,22.99
2019-03-05T11:45:51.436Z,22.83
2019-03-05T11:46:50.312Z,22.77
2019-03-05T11:47:50.337Z,22.78
2019-03-05T11:48:50.307Z,22.74
2019-03-05T11:49:50.306Z,22.82
2019-03-05T11:50:51.566Z,23.04
2019-03-05T11:51:50.294Z,22.75
2019-03-05T11:52:50.251Z,22.75
2019-03-05T11:53:50.231Z,22.87
2019-03-05T11:54:50.371Z,23.42
2019-03-05T11:55:50.210Z,23.61
2019-03-05T11:56:50.194Z,23.43
2019-03-05T11:57:50.239Z,23.26
2019-03-05T11:58:50.172Z,23.34
2019-03-05T11:59:50.167Z,23.67
2019-03-05T12:00:50.166Z,23.60
2019-03-05T12:01:50.146Z,24.05
2019-03-05T12:02:50.133Z,24.04
2019-03-05T12:03:50.160Z,24.60
2019-03-05T12:04:50.110Z,24.76
2019-03-05T12:05:50.113Z,25.12
2019-03-05T12:06:50.093Z,25.19
2019-03-05T12:07:50.078Z,25.56
2019-03-05T12:08:50.112Z,25.72
2019-03-05T12:09:50.169Z,25.93
2019-03-05T12:10:50.046Z,25.99
2019-03-05T12:11:50.041Z,26.28
2019-03-05T12:12:50.027Z,26.11
2019-03-05T12:13:50.039Z,25.71
2019-03-05T12:14:50.000Z,25.24
2019-03-05T12:15:50.036Z,24.94
2019-03-05T12:16:49.996Z,24.82
2019-03-05T12:17:50.018Z,25.28
2019-03-05T12:18:49.952Z,25.53
2019-03-05T12:19:49.980Z,25.31
2019-03-05T12:20:49.972Z,25.34
2019-03-05T12:21:49.985Z,25.38
2019-03-05T12:22:49.913Z,25.31
2019-03-05T12:23:49.887Z,25.20
2019-03-05T12:24:49.880Z,24.94
2019-03-05T12:25:49.877Z,24.67
2019-03-05T12:26:49.853Z,24.39
2019-03-05T12:27:49.889Z,24.20
2019-03-05T12:28:49.891Z,24.52
2019-03-05T12:29:49.838Z,24.56
2019-03-05T12:30:49.815Z,24.79
2019-03-05T12:31:49.797Z,24.79
2019-03-05T12:32:49.809Z,24.52
2019-03-05T12:33:49.819Z,24.31
2019-03-05T12:34:49.765Z,24.14
2019-03-05T12:35:49.758Z,24.04
2019-03-05T12:36:49.739Z,23.80
2019-03-05T12:37:49.732Z,23.82
2019-03-05T12:38:49.727Z,23.86
2019-03-05T12:39:50.140Z,23.90
2019-03-05T12:40:49.703Z,24.01
2019-03-05T12:41:49.686Z,24.13
2019-03-05T12:42:49.671Z,24.14
2019-03-05T12:43:49.700Z,24.02
2019-03-05T12:44:49.704Z,23.83
2019-03-05T12:45:52.560Z,23.68
2019-03-05T12:46:49.730Z,23.61
2019-03-05T12:47:49.727Z,23.68
2019-03-05T12:48:49.734Z,23.67
2019-03-05T12:49:49.759Z,23.52
2019-03-05T12:50:49.731Z,23.29
2019-03-05T12:51:49.577Z,23.32
2019-03-05T12:52:49.587Z,23.29